createdAt,value
2022-10-09T00:01:31.174Z,98.02
2022-10-09T00:03:59.600Z,98.18
2022-10-09T00:06:30.791Z,98.05
2022-10-09T00:09:01.908Z,97.40
2022-10-09T00:11:31.864Z,97.54
2022-10-09T00:14:00.881Z,96.69
2022-10-09T00:16:29.643Z,96.48
2022-10-09T00:18:58.156Z,96.22
2022-10-09T00:21:31.978Z,96.07
2022-10-09T00:24:01.873Z,96.55
2022-10-09T00:26:30.132Z,97.00
2022-10-09T00:28:58.904Z,98.05
2022-10-09T00:31:26.601Z,98.89
2022-10-09T00:33:54.051Z,99.30
2022-10-09T00:36:25.794Z,99.40
2022-10-09T00:38:54.933Z,100.00
2022-10-09T00:41:26.407Z,99.63
2022-10-09T00:43:59.957Z,99.91
2022-10-09T00:46:33.694Z,100.00
2022-10-09T00:49:13.471Z,100.00
2022-10-09T00:51:44.880Z,100.00
2022-10-09T00:54:16.376Z,100.00
2022-10-09T00:56:44.192Z,100.00
2022-10-09T00:59:12.665Z,100.00
2022-10-09T01:01:41.769Z,100.00
2022-10-09T01:04:09.741Z,100.00
2022-10-09T01:06:43.173Z,100.00
2022-10-09T01:09:18.421Z,100.00
2022-10-09T01:12:09.253Z,100.00
2022-10-09T01:14:50.531Z,100.00
2022-10-09T01:17:29.443Z,100.00
2022-10-09T01:20:03.208Z,100.00
2022-10-09T01:23:18.028Z,100.00
2022-10-09T01:26:20.580Z,100.00
2022-10-09T01:28:56.721Z,99.76
2022-10-09T01:31:27.818Z,100.00
2022-10-09T01:33:55.564Z,99.39
2022-10-09T01:36:24.624Z,99.37
2022-10-09T01:38:53.752Z,98.50
2022-10-09T01:41:21.675Z,98.17
2022-10-09T01:43:49.197Z,99.49
2022-10-09T01:46:28.814Z,98.58
2022-10-09T01:49:29.116Z,99.26
2022-10-09T01:52:23.551Z,99.80
2022-10-09T01:55:08.793Z,99.46
2022-10-09T01:57:56.514Z,98.25
2022-10-09T02:00:24.706Z,99.11
2022-10-09T02:02:54.016Z,99.21
2022-10-09T02:05:26.113Z,99.78
2022-10-09T02:07:54.801Z,100.00
2022-10-09T02:10:25.231Z,100.00
2022-10-09T02:12:57.848Z,100.00
2022-10-09T02:15:32.980Z,99.78
2022-10-09T02:18:08.501Z,100.00
2022-10-09T02:20:39.663Z,100.00
2022-10-09T02:23:09.298Z,100.00
2022-10-09T02:25:37.754Z,100.00
2022-10-09T02:28:06.057Z,100.00
2022-10-09T02:30:48.197Z,100.00
2022-10-09T02:33:15.771Z,100.00
2022-10-09T02:35:43.884Z,100.00
2022-10-09T02:38:11.481Z,100.00
2022-10-09T02:40:38.989Z,100.00
2022-10-09T02:43:06.497Z,100.00
2022-10-09T02:45:34.838Z,100.00
2022-10-09T02:48:02.314Z,100.00
2022-10-09T02:50:29.845Z,100.00
2022-10-09T02:52:57.403Z,100.00
2022-10-09T02:55:24.877Z,100.00
2022-10-09T02:57:52.869Z,100.00
2022-10-09T03:00:20.395Z,100.00
2022-10-09T03:02:48.158Z,100.00
2022-10-09T03:05:15.965Z,100.00
2022-10-09T03:07:51.090Z,100.00
2022-10-09T03:10:20.617Z,100.00
2022-10-09T03:12:48.949Z,100.00
2022-10-09T03:15:16.817Z,100.00
2022-10-09T03:17:45.058Z,100.00
2022-10-09T03:20:13.130Z,100.00
2022-10-09T03:22:41.247Z,100.00
2022-10-09T03:25:09.440Z,100.00
2022-10-09T03:27:37.559Z,100.00
2022-10-09T03:30:06.361Z,100.00
2022-10-09T03:32:34.050Z,100.00
2022-10-09T03:35:02.174Z,100.00
2022-10-09T03:37:29.655Z,100.00
2022-10-09T03:39:57.436Z,100.00
2022-10-09T03:42:25.294Z,100.00
2022-10-09T03:44:53.662Z,100.00
2022-10-09T03:47:21.227Z,100.00
2022-10-09T03:49:48.944Z,100.00
2022-10-09T03:52:16.716Z,100.00
2022-10-09T03:54:44.187Z,100.00
2022-10-09T03:57:11.693Z,100.00
2022-10-09T03:59:39.303Z,100.00
2022-10-09T04:02:07.554Z,100.00
2022-10-09T04:04:35.052Z,100.00
2022-10-09T04:07:02.562Z,100.00
2022-10-09T04:09:30.075Z,100.00
2022-10-09T04:11:58.436Z,100.00
2022-10-09T04:14:25.973Z,100.00
2022-10-09T04:16:54.020Z,100.00
2022-10-09T04:19:21.488Z,100.00
2022-10-09T04:21:49.920Z,100.00
2022-10-09T04:24:18.126Z,100.00
2022-10-09T04:26:45.657Z,100.00
2022-10-09T04:29:13.934Z,100.00
2022-10-09T04:31:41.643Z,100.00
2022-10-09T04:34:09.287Z,100.00
2022-10-09T04:36:37.621Z,100.00
2022-10-09T04:39:05.747Z,100.00
2022-10-09T04:41:37.986Z,100.00
2022-10-09T04:44:06.280Z,100.00
2022-10-09T04:46:33.923Z,100.00
2022-10-09T04:49:01.468Z,100.00
2022-10-09T04:51:29.666Z,100.00
2022-10-09T04:54:00.616Z,100.00
2022-10-09T04:56:28.902Z,100.00
2022-10-09T04:58:56.916Z,100.00
2022-10-09T05:01:27.300Z,100.00
2022-10-09T05:03:56.225Z,100.00
2022-10-09T05:06:25.069Z,100.00
2022-10-09T05:08:53.377Z,100.00
2022-10-09T05:11:23.687Z,100.00
2022-10-09T05:13:53.893Z,100.00
2022-10-09T05:16:27.717Z,100.00
2022-10-09T05:18:58.196Z,100.00
2022-10-09T05:21:27.925Z,100.00
2022-10-09T05:23:56.504Z,100.00
2022-10-09T05:26:25.840Z,100.00
2022-10-09T05:28:53.541Z,100.00
2022-10-09T05:31:26.604Z,100.00
2022-10-09T05:33:56.011Z,100.00
2022-10-09T05:36:23.752Z,100.00
2022-10-09T05:38:52.077Z,100.00
2022-10-09T05:41:20.160Z,100.00
2022-10-09T05:43:49.413Z,100.00
2022-10-09T05:46:25.533Z,100.00
2022-10-09T05:48:55.911Z,100.00
2022-10-09T05:51:28.931Z,100.00
2022-10-09T05:53:57.212Z,100.00
2022-10-09T05:56:30.416Z,100.00
2022-10-09T05:59:03.884Z,100.00
2022-10-09T06:01:41.269Z,100.00
2022-10-09T06:04:13.442Z,100.00
2022-10-09T06:06:41.557Z,100.00
2022-10-09T06:09:11.087Z,100.00
2022-10-09T06:11:40.537Z,100.00
2022-10-09T06:14:10.957Z,100.00
2022-10-09T06:16:41.449Z,100.00
2022-10-09T06:19:12.194Z,100.00
2022-10-09T06:21:39.899Z,100.00
2022-10-09T06:24:08.026Z,100.00
2022-10-09T06:26:35.568Z,100.00
2022-10-09T06:29:03.558Z,100.00
2022-10-09T06:31:32.916Z,100.00
2022-10-09T06:34:01.964Z,100.00
2022-10-09T06:36:33.414Z,100.00
2022-10-09T06:39:03.699Z,100.00
2022-10-09T06:41:31.769Z,100.00
2022-10-09T06:44:01.968Z,100.00
2022-10-09T06:46:35.707Z,100.00
2022-10-09T06:49:04.957Z,100.00
2022-10-09T06:51:33.807Z,100.00
2022-10-09T06:54:04.494Z,100.00
2022-10-09T06:56:32.475Z,100.00
2022-10-09T06:59:02.526Z,100.00
2022-10-09T07:01:34.686Z,100.00
2022-10-09T07:04:09.875Z,100.00
2022-10-09T07:06:39.956Z,100.00
2022-10-09T07:09:11.295Z,100.00
2022-10-09T07:11:44.926Z,100.00
2022-10-09T07:14:14.306Z,100.00
2022-10-09T07:16:44.790Z,100.00
2022-10-09T07:19:13.977Z,100.00
2022-10-09T07:21:44.229Z,100.00
2022-10-09T07:24:13.404Z,100.00
2022-10-09T07:26:44.181Z,100.00
2022-10-09T07:29:14.551Z,100.00
2022-10-09T07:31:43.199Z,100.00
2022-10-09T07:34:11.483Z,100.00
2022-10-09T07:36:39.618Z,100.00
2022-10-09T07:39:07.604Z,100.00
2022-10-09T07:41:35.462Z,100.00
2022-10-09T07:44:03.228Z,100.00
2022-10-09T07:46:34.028Z,100.00
2022-10-09T07:49:03.111Z,100.00
2022-10-09T07:51:32.790Z,100.00
2022-10-09T07:54:02.150Z,98.75
2022-10-09T07:56:35.814Z,97.22
2022-10-09T07:59:07.264Z,96.88
2022-10-09T08:01:36.151Z,95.19
2022-10-09T08:04:04.263Z,95.46
2022-10-09T08:06:32.686Z,93.42
2022-10-09T08:09:02.525Z,92.71
2022-10-09T08:11:31.107Z,90.38
2022-10-09T08:13:59.267Z,90.76
2022-10-09T08:16:28.199Z,88.49
2022-10-09T08:18:58.471Z,84.93
2022-10-09T08:21:28.672Z,83.41
2022-10-09T08:23:58.063Z,75.53
2022-10-09T08:26:30.258Z,66.69
2022-10-09T08:29:05.592Z,66.56
2022-10-09T08:31:33.205Z,68.03
2022-10-09T08:34:03.387Z,63.67
2022-10-09T08:36:31.547Z,63.24
2022-10-09T08:38:59.148Z,58.35
2022-10-09T08:41:29.819Z,58.70
2022-10-09T08:44:10.434Z,56.50
2022-10-09T08:46:46.975Z,54.22
2022-10-09T08:49:37.700Z,52.20
2022-10-09T08:52:36.161Z,50.12
2022-10-09T08:55:21.541Z,48.32
2022-10-09T08:57:52.165Z,48.51
2022-10-09T09:00:22.654Z,47.69
2022-10-09T09:03:09.201Z,45.71
2022-10-09T09:05:43.039Z,45.84
2022-10-09T09:08:44.280Z,45.27
2022-10-09T09:11:36.739Z,46.10
2022-10-09T09:14:14.383Z,45.55
2022-10-09T09:17:29.313Z,44.03
2022-10-09T09:20:03.707Z,45.51
2022-10-09T09:22:32.669Z,44.36
2022-10-09T09:25:17.887Z,43.00
2022-10-09T09:27:46.263Z,43.36
2022-10-09T09:30:51.977Z,42.84
2022-10-09T09:33:26.028Z,41.23
2022-10-09T09:36:09.123Z,42.60
2022-10-09T09:38:54.213Z,41.28
2022-10-09T09:41:25.725Z,41.59
2022-10-09T09:43:53.257Z,38.89
2022-10-09T09:46:24.428Z,41.00
2022-10-09T09:48:52.128Z,40.60
2022-10-09T09:51:28.674Z,41.72
2022-10-09T09:54:05.239Z,43.44
2022-10-09T09:57:10.449Z,42.69
2022-10-09T09:59:36.673Z,41.80
2022-10-09T10:02:11.792Z,42.31
2022-10-09T10:04:54.140Z,42.64
2022-10-09T10:07:36.487Z,41.75
2022-10-09T10:10:10.137Z,43.02
2022-10-09T10:12:59.390Z,42.57
2022-10-09T10:15:29.636Z,40.96
2022-10-09T10:18:17.547Z,40.31
2022-10-09T10:20:49.766Z,43.45
2022-10-09T10:23:40.908Z,46.52
2022-10-09T10:26:25.919Z,43.21
2022-10-09T10:29:34.759Z,44.46
2022-10-09T10:32:17.451Z,46.64
2022-10-09T10:34:58.007Z,46.27
2022-10-09T10:37:31.368Z,42.18
2022-10-09T10:40:01.797Z,42.80
2022-10-09T10:42:44.917Z,43.43
2022-10-09T10:45:26.367Z,43.83
2022-10-09T10:47:58.478Z,46.18
2022-10-09T10:50:31.147Z,46.41
2022-10-09T10:53:14.115Z,44.24
2022-10-09T10:56:09.181Z,41.07
2022-10-09T10:59:07.718Z,43.78
2022-10-09T11:01:57.922Z,46.34
2022-10-09T11:05:01.064Z,49.09
2022-10-09T11:08:03.573Z,51.60
2022-10-09T11:10:54.549Z,51.40
2022-10-09T11:13:56.220Z,49.33
2022-10-09T11:16:35.769Z,48.57
2022-10-09T11:19:20.789Z,49.15
2022-10-09T11:21:56.965Z,47.43
2022-10-09T11:24:59.636Z,44.19
2022-10-09T11:27:32.287Z,41.89
2022-10-09T11:30:15.639Z,41.21
2022-10-09T11:32:45.985Z,41.33
2022-10-09T11:35:22.252Z,44.66
2022-10-09T11:38:04.836Z,44.90
2022-10-09T11:40:38.260Z,44.65
2022-10-09T11:43:27.317Z,42.55
2022-10-09T12:14:29.681Z,40.48
2022-10-09T12:16:59.100Z,39.40
2022-10-09T12:19:38.265Z,38.30
2022-10-09T12:22:23.476Z,37.68
2022-10-09T12:24:55.232Z,37.48
2022-10-09T12:27:28.654Z,36.99
2022-10-09T12:29:59.734Z,36.72
2022-10-09T12:32:31.884Z,36.24
2022-10-09T12:35:04.710Z,36.46
2022-10-09T12:37:35.750Z,36.17
2022-10-09T12:40:31.681Z,35.16
2022-10-09T12:43:06.450Z,34.02
2022-10-09T12:45:34.002Z,33.23
2022-10-09T12:48:10.513Z,34.16
2022-10-09T12:50:38.796Z,33.06
2022-10-09T12:53:15.358Z,32.96
2022-10-09T12:55:50.161Z,34.01
2022-10-09T12:58:26.714Z,32.95
2022-10-09T13:01:01.617Z,32.26
2022-10-09T13:03:43.637Z,34.10
2022-10-09T13:06:20.959Z,31.44
2022-10-09T13:09:04.250Z,32.32
2022-10-09T13:11:43.091Z,31.75
2022-10-09T13:14:52.500Z,30.30
2022-10-09T13:17:29.360Z,29.03
2022-10-09T13:20:00.362Z,30.12
2022-10-09T13:22:35.048Z,30.17
2022-10-09T13:25:05.021Z,29.83
2022-10-09T13:27:37.461Z,29.04
2022-10-09T13:30:06.583Z,28.73
2022-10-09T13:32:34.102Z,28.78
2022-10-09T13:35:01.685Z,29.40
2022-10-09T13:37:29.720Z,33.14
2022-10-09T13:39:59.210Z,35.08
2022-10-09T13:42:31.448Z,37.10
2022-10-09T13:44:59.027Z,38.09
2022-10-09T13:47:26.918Z,34.54
2022-10-09T13:49:55.091Z,31.80
2022-10-09T13:52:22.625Z,30.34
2022-10-09T13:54:50.687Z,28.55
2022-10-09T13:57:18.177Z,29.32
2022-10-09T13:59:46.802Z,31.70
2022-10-09T14:02:14.879Z,32.83
2022-10-09T14:04:42.701Z,32.69
2022-10-09T14:07:10.813Z,31.48
2022-10-09T14:09:38.519Z,30.48
2022-10-09T14:12:06.521Z,29.90
2022-10-09T14:14:34.289Z,30.77
2022-10-09T14:17:01.865Z,33.39
2022-10-09T14:19:29.615Z,34.50
2022-10-09T14:21:58.584Z,34.52
2022-10-09T14:24:26.655Z,32.88
2022-10-09T14:26:55.204Z,33.70
2022-10-09T14:29:22.895Z,36.09
2022-10-09T14:31:53.951Z,36.12
2022-10-09T14:34:21.982Z,36.31
2022-10-09T14:36:50.330Z,37.27
2022-10-09T14:39:17.955Z,37.44
2022-10-09T14:41:46.001Z,36.63
2022-10-09T14:44:13.738Z,35.89
2022-10-09T14:46:41.444Z,38.22
2022-10-09T14:49:10.803Z,39.71
2022-10-09T14:51:40.512Z,38.02
2022-10-09T14:54:09.551Z,37.49
2022-10-09T14:56:37.756Z,38.47
2022-10-09T14:59:06.194Z,40.49
2022-10-09T15:01:34.920Z,40.94
2022-10-09T15:04:04.631Z,36.92
2022-10-09T15:06:34.133Z,34.36
2022-10-09T15:09:05.639Z,34.56
2022-10-09T15:11:35.345Z,35.50
2022-10-09T15:14:04.680Z,32.92
2022-10-09T15:16:32.714Z,34.56
2022-10-09T15:19:00.674Z,35.11
2022-10-09T15:21:33.147Z,36.62
2022-10-09T15:24:02.900Z,36.76
2022-10-09T15:26:36.303Z,37.12
2022-10-09T15:29:07.013Z,38.03
2022-10-09T15:31:39.927Z,39.98
2022-10-09T15:34:09.004Z,41.34
2022-10-09T15:36:40.020Z,43.32
2022-10-09T15:39:09.095Z,44.75
2022-10-09T15:41:39.514Z,46.28
2022-10-09T15:44:19.061Z,46.02
2022-10-09T15:46:48.139Z,47.24
2022-10-09T15:49:15.705Z,47.33
2022-10-09T15:51:43.263Z,47.84
2022-10-09T15:54:11.974Z,49.25
2022-10-09T15:56:41.458Z,50.29
2022-10-09T15:59:12.710Z,50.27
2022-10-09T16:01:40.834Z,49.88
2022-10-09T16:04:10.884Z,49.69
2022-10-09T16:06:38.837Z,50.15
2022-10-09T16:09:06.517Z,50.09
2022-10-09T16:11:34.774Z,51.42
2022-10-09T16:14:02.380Z,52.20
2022-10-09T16:16:30.476Z,52.54
2022-10-09T16:18:58.156Z,54.52
2022-10-09T16:21:28.549Z,55.20
2022-10-09T16:23:59.091Z,55.06
2022-10-09T16:26:29.464Z,56.67
2022-10-09T16:28:59.167Z,57.50
2022-10-09T16:31:34.954Z,59.06
2022-10-09T16:34:05.281Z,60.38
2022-10-09T16:36:33.480Z,61.04
2022-10-09T16:39:02.007Z,61.59
2022-10-09T16:41:29.606Z,63.01
2022-10-09T16:44:00.216Z,63.27
2022-10-09T16:46:31.871Z,63.54
2022-10-09T16:49:02.838Z,64.65
2022-10-09T16:51:34.982Z,65.96
2022-10-09T16:54:05.426Z,66.33
2022-10-09T16:56:36.945Z,67.20
2022-10-09T16:59:11.009Z,69.48
2022-10-09T17:01:43.650Z,71.45
2022-10-09T17:04:12.952Z,72.02
2022-10-09T17:06:42.103Z,72.80
2022-10-09T17:09:13.923Z,73.77
2022-10-09T17:11:43.405Z,73.36
2022-10-09T17:14:12.053Z,74.11
2022-10-09T17:16:41.264Z,74.71
2022-10-09T17:19:09.621Z,76.02
2022-10-09T17:21:37.571Z,76.56
2022-10-09T17:24:06.194Z,77.56
2022-10-09T17:26:35.167Z,78.06
2022-10-09T17:29:04.750Z,78.24
2022-10-09T17:31:32.442Z,78.76
2022-10-09T17:34:02.207Z,78.65
2022-10-09T17:36:32.418Z,79.46
2022-10-09T17:39:00.825Z,79.67
2022-10-09T17:41:29.328Z,79.57
2022-10-09T17:43:57.923Z,79.02
2022-10-09T17:46:28.374Z,80.09
2022-10-09T17:48:57.070Z,80.90
2022-10-09T17:51:28.602Z,81.28
2022-10-09T17:53:59.287Z,81.05
2022-10-09T17:56:28.076Z,81.23
2022-10-09T17:58:56.148Z,81.59
2022-10-09T18:01:24.479Z,82.24
2022-10-09T18:03:52.631Z,82.17
2022-10-09T18:06:24.977Z,81.41
2022-10-09T18:08:55.500Z,82.27
2022-10-09T18:11:25.498Z,82.23
2022-10-09T18:13:54.473Z,81.85
2022-10-09T18:16:35.429Z,81.99
2022-10-09T18:19:13.029Z,82.82
2022-10-09T18:21:44.276Z,82.18
2022-10-09T18:24:12.775Z,81.48
2022-10-09T18:26:42.260Z,81.59
2022-10-09T18:29:09.990Z,82.88
2022-10-09T18:31:38.612Z,83.24
2022-10-09T18:34:06.736Z,83.39
2022-10-09T18:36:35.007Z,83.72
2022-10-09T18:39:04.768Z,82.82
2022-10-09T18:41:32.292Z,83.02
2022-10-09T18:44:01.830Z,83.19
2022-10-09T18:46:38.255Z,83.27
2022-10-09T18:49:09.570Z,83.96
2022-10-09T18:51:41.647Z,82.86
2022-10-09T18:54:14.430Z,83.66
2022-10-09T18:56:45.230Z,84.11
2022-10-09T18:59:17.240Z,82.88
2022-10-09T19:01:44.843Z,81.86
2022-10-09T19:04:13.028Z,82.41
2022-10-09T19:06:40.742Z,82.68
2022-10-09T19:09:08.665Z,82.29
2022-10-09T19:11:36.628Z,81.14
2022-10-09T19:14:04.153Z,82.70
2022-10-09T19:16:33.895Z,82.43
2022-10-09T19:19:01.613Z,83.03
2022-10-09T19:21:29.839Z,83.57
2022-10-09T19:24:03.369Z,83.48
2022-10-09T19:26:30.890Z,84.84
2022-10-09T19:28:58.960Z,83.01
2022-10-09T19:31:26.617Z,83.54
2022-10-09T19:33:54.162Z,84.85
2022-10-09T19:36:21.708Z,84.64
2022-10-09T19:38:49.234Z,85.49
2022-10-09T19:41:16.779Z,85.40
2022-10-09T19:43:44.811Z,85.11
2022-10-09T19:46:17.334Z,85.91
2022-10-09T19:48:46.168Z,86.77
2022-10-09T19:51:17.299Z,86.69
2022-10-09T19:53:45.254Z,87.13
2022-10-09T19:56:19.773Z,87.21
2022-10-09T19:58:48.931Z,87.86
2022-10-09T20:01:19.847Z,87.77
2022-10-09T20:03:48.908Z,87.97
2022-10-09T20:06:16.393Z,87.74
2022-10-09T20:08:45.444Z,88.17
2022-10-09T20:11:13.971Z,88.80
2022-10-09T20:13:43.063Z,88.30
2022-10-09T20:16:15.148Z,88.43
2022-10-09T20:18:43.744Z,88.73
2022-10-09T20:21:14.061Z,86.30
2022-10-09T20:23:44.352Z,85.96
2022-10-09T20:26:17.302Z,83.99
2022-10-09T20:28:46.955Z,81.96
2022-10-09T20:31:19.567Z,79.07
2022-10-09T20:33:49.005Z,78.89
2022-10-09T20:36:37.466Z,77.81
2022-10-09T20:39:11.302Z,76.36
2022-10-09T20:41:39.778Z,75.44
2022-10-09T20:44:07.982Z,75.31
2022-10-09T20:46:37.577Z,74.85
2022-10-09T20:49:08.681Z,74.06
2022-10-09T20:51:37.552Z,74.10
2022-10-09T20:54:06.499Z,74.00
2022-10-09T20:56:34.816Z,73.23
2022-10-09T20:59:03.691Z,73.38
2022-10-09T21:01:31.797Z,73.97
2022-10-09T21:03:59.560Z,73.70
2022-10-09T21:06:27.185Z,73.75
2022-10-09T21:08:55.292Z,73.49
2022-10-09T21:11:24.091Z,73.56
2022-10-09T21:13:51.903Z,73.27
2022-10-09T21:16:22.084Z,72.65
2022-10-09T21:18:57.502Z,72.01
2022-10-09T21:21:26.538Z,71.35
2022-10-09T21:23:56.123Z,72.47
2022-10-09T21:26:24.020Z,72.81
2022-10-09T21:28:56.753Z,72.69
2022-10-09T21:31:28.649Z,72.11
2022-10-09T21:33:58.087Z,71.93
2022-10-09T21:37:02.169Z,72.83
2022-10-09T21:39:32.463Z,71.52
2022-10-09T21:41:59.956Z,72.20
2022-10-09T21:44:28.020Z,71.64
2022-10-09T21:46:56.457Z,71.48
2022-10-09T21:49:27.341Z,71.29
2022-10-09T21:51:56.062Z,71.07
2022-10-09T21:54:24.149Z,70.85
2022-10-09T21:56:52.110Z,70.64
2022-10-09T21:59:19.657Z,71.02
2022-10-09T22:01:47.370Z,70.18
2022-10-09T22:04:15.091Z,70.76
2022-10-09T22:06:43.478Z,70.69
2022-10-09T22:09:12.217Z,70.85
2022-10-09T22:11:39.811Z,70.79
2022-10-09T22:14:07.570Z,70.83
2022-10-09T22:16:35.113Z,70.55
2022-10-09T22:19:03.093Z,69.33
2022-10-09T22:21:31.322Z,69.28
2022-10-09T22:24:00.502Z,69.03
2022-10-09T22:26:28.218Z,67.97
2022-10-09T22:28:55.755Z,68.26
2022-10-09T22:31:25.615Z,68.11
2022-10-09T22:34:00.943Z,68.25
2022-10-09T22:36:31.675Z,67.89
2022-10-09T22:39:02.089Z,68.60
2022-10-09T22:41:30.798Z,66.25
2022-10-09T22:44:00.153Z,66.02
2022-10-09T22:46:34.720Z,66.11
2022-10-09T22:49:02.879Z,65.69
2022-10-09T22:51:31.595Z,65.73
2022-10-09T22:54:00.478Z,66.00
2022-10-09T22:56:38.165Z,65.73
2022-10-09T22:59:06.988Z,66.02
2022-10-09T23:01:39.725Z,66.29
2022-10-09T23:04:10.750Z,65.87
2022-10-09T23:06:38.806Z,65.27
2022-10-09T23:09:08.738Z,64.88
2022-10-09T23:11:36.976Z,64.99
2022-10-09T23:14:05.430Z,64.91
2022-10-09T23:16:34.064Z,65.69
2022-10-09T23:19:06.751Z,65.17
2022-10-09T23:21:37.856Z,64.80
2022-10-09T23:24:06.439Z,64.80
2022-10-09T23:26:36.943Z,66.36
2022-10-09T23:29:12.518Z,67.49
2022-10-09T23:31:40.638Z,66.05
2022-10-09T23:34:08.205Z,66.80
2022-10-09T23:36:36.311Z,65.54
2022-10-09T23:39:06.163Z,64.62
2022-10-09T23:41:34.850Z,64.14
2022-10-09T23:44:02.448Z,64.32
2022-10-09T23:46:33.867Z,63.39
2022-10-09T23:49:02.013Z,64.12
2022-10-09T23:51:30.110Z,63.75
2022-10-09T23:53:58.311Z,63.76
2022-10-09T23:56:32.281Z,62.36
2022-10-09T23:59:01.764Z,62.05
